createdAt,value
2023-02-08T00:02:04.308Z,7.82
2023-02-08T00:04:31.609Z,9.02
2023-02-08T00:06:59.097Z,8.10
2023-02-08T00:09:26.226Z,8.65
2023-02-08T00:11:53.350Z,8.40
2023-02-08T00:14:20.679Z,8.65
2023-02-08T00:16:47.890Z,8.77
2023-02-08T00:19:15.048Z,9.38
2023-02-08T00:21:42.215Z,9.38
2023-02-08T00:24:11.798Z,8.43
2023-02-08T00:26:38.985Z,9.65
2023-02-08T00:29:06.216Z,9.15
2023-02-08T00:31:33.511Z,8.98
2023-02-08T00:34:00.948Z,9.95
2023-02-08T00:36:28.161Z,8.18
2023-02-08T00:38:55.395Z,9.00
2023-02-08T00:41:22.557Z,9.23
2023-02-08T00:43:49.722Z,10.23
2023-02-08T00:46:16.996Z,11.40
2023-02-08T00:48:44.168Z,8.95
2023-02-08T00:51:15.374Z,10.13
2023-02-08T00:53:43.799Z,9.82
2023-02-08T00:56:14.612Z,8.55
2023-02-08T00:58:42.019Z,10.85
2023-02-08T01:01:09.637Z,9.98
2023-02-08T01:03:38.227Z,10.05
2023-02-08T01:06:06.389Z,9.02
2023-02-08T01:08:33.768Z,9.93
2023-02-08T01:11:06.833Z,9.30
2023-02-08T01:13:34.177Z,10.75
2023-02-08T01:16:08.876Z,8.75
2023-02-08T01:18:36.471Z,9.90
2023-02-08T01:21:08.205Z,10.55
2023-02-08T01:23:35.406Z,9.45
2023-02-08T01:26:02.738Z,9.57
2023-02-08T01:28:29.921Z,10.38
2023-02-08T01:30:57.140Z,9.10
2023-02-08T01:33:24.341Z,10.18
2023-02-08T01:35:54.522Z,10.40
2023-02-08T01:38:21.764Z,9.85
2023-02-08T01:40:48.984Z,9.48
2023-02-08T01:43:27.063Z,10.57
2023-02-08T01:45:54.561Z,10.82
2023-02-08T01:48:26.954Z,10.13
2023-02-08T01:51:00.506Z,10.05
2023-02-08T01:53:29.118Z,9.88
2023-02-08T01:55:57.673Z,9.88
2023-02-08T01:58:25.811Z,9.93
2023-02-08T02:00:53.030Z,10.38
2023-02-08T02:03:21.794Z,10.27
2023-02-08T02:05:50.839Z,9.95
2023-02-08T02:08:18.028Z,11.48
2023-02-08T02:10:45.252Z,11.27
2023-02-08T02:13:17.875Z,11.43
2023-02-08T02:15:45.718Z,10.30
2023-02-08T02:18:16.240Z,10.45
2023-02-08T02:21:12.485Z,10.45
2023-02-08T02:23:42.469Z,9.25
2023-02-08T02:26:25.130Z,9.57
2023-02-08T02:31:23.011Z,10.48
2023-02-08T02:33:59.544Z,11.45
2023-02-08T02:36:50.097Z,10.07
2023-02-08T02:39:17.290Z,9.85
2023-02-08T02:42:06.072Z,12.00
2023-02-08T02:44:39.797Z,11.52
2023-02-08T02:47:14.623Z,10.88
2023-02-08T02:49:49.129Z,11.68
2023-02-08T02:52:18.677Z,10.30
2023-02-08T02:54:49.459Z,11.70
2023-02-08T02:57:19.642Z,10.88
2023-02-08T02:59:46.926Z,11.68
2023-02-08T03:02:14.601Z,11.40
2023-02-08T03:04:41.745Z,11.70
2023-02-08T03:07:21.119Z,11.93
2023-02-08T03:09:53.529Z,12.18
2023-02-08T03:12:26.225Z,11.35
2023-02-08T03:15:02.060Z,12.10
2023-02-08T03:17:47.861Z,12.00
2023-02-08T03:20:18.832Z,12.18
2023-02-08T03:22:59.426Z,11.73
2023-02-08T03:25:40.469Z,11.55
2023-02-08T03:28:18.447Z,12.52
2023-02-08T03:30:51.908Z,12.00
2023-02-08T03:33:26.343Z,11.45
2023-02-08T03:35:57.421Z,11.88
2023-02-08T03:38:28.245Z,11.93
2023-02-08T03:40:56.779Z,11.38
2023-02-08T03:43:36.017Z,10.95
2023-02-08T03:46:26.535Z,13.57
2023-02-08T03:49:03.268Z,12.48
2023-02-08T03:51:30.834Z,13.00
2023-02-08T03:53:59.534Z,12.77
2023-02-08T03:56:36.357Z,11.07
2023-02-08T03:59:06.277Z,12.43
2023-02-08T04:01:36.859Z,12.82
2023-02-08T04:04:04.274Z,13.32
2023-02-08T04:06:31.626Z,11.20
2023-02-08T04:08:58.809Z,12.02
2023-02-08T04:11:26.000Z,10.98
2023-02-08T04:13:53.225Z,13.02
2023-02-08T04:16:20.420Z,12.82
2023-02-08T04:18:47.588Z,11.90
2023-02-08T04:21:14.770Z,12.27
2023-02-08T04:23:41.933Z,12.43
2023-02-08T04:26:09.573Z,11.60
2023-02-08T04:28:36.809Z,12.35
2023-02-08T04:31:04.116Z,12.48
2023-02-08T04:33:31.379Z,12.85
2023-02-08T04:35:58.584Z,11.57
2023-02-08T04:38:25.826Z,12.65
2023-02-08T04:40:53.005Z,12.20
2023-02-08T04:43:20.274Z,11.88
2023-02-08T04:45:48.762Z,13.20
2023-02-08T04:48:15.922Z,13.00
2023-02-08T04:50:43.321Z,14.27
2023-02-08T04:53:10.709Z,12.82
2023-02-08T04:55:37.836Z,13.32
2023-02-08T04:58:05.215Z,11.80
2023-02-08T05:00:32.450Z,14.63
2023-02-08T05:03:00.233Z,13.55
2023-02-08T05:05:28.405Z,13.25
2023-02-08T05:07:55.733Z,13.80
2023-02-08T05:10:22.893Z,13.70
2023-02-08T05:12:50.126Z,14.15
2023-02-08T05:15:17.360Z,13.45
2023-02-08T05:17:44.579Z,13.93
2023-02-08T05:20:12.120Z,13.55
2023-02-08T05:22:39.299Z,15.23
2023-02-08T05:25:06.770Z,13.05
2023-02-08T05:27:34.782Z,15.10
2023-02-08T05:30:02.349Z,14.05
2023-02-08T05:32:30.626Z,14.73
2023-02-08T05:34:57.831Z,15.85
2023-02-08T05:37:25.010Z,14.82
2023-02-08T05:39:52.152Z,14.88
2023-02-08T05:42:19.427Z,14.55
2023-02-08T05:44:46.743Z,15.45
2023-02-08T05:47:14.005Z,15.05
2023-02-08T05:49:41.135Z,14.52
2023-02-08T05:52:08.355Z,16.60
2023-02-08T05:54:35.590Z,15.30
2023-02-08T05:57:02.797Z,15.77
2023-02-08T05:59:30.048Z,15.20
2023-02-08T06:01:57.522Z,15.30
2023-02-08T06:04:24.832Z,16.98
2023-02-08T06:06:52.122Z,15.77
2023-02-08T06:09:19.379Z,16.40
2023-02-08T06:11:46.543Z,16.88
2023-02-08T06:14:13.763Z,16.15
2023-02-08T06:16:41.399Z,16.00
2023-02-08T06:19:08.630Z,17.20
2023-02-08T06:21:35.800Z,18.33
2023-02-08T06:24:05.853Z,16.42
2023-02-08T06:26:34.106Z,17.48
2023-02-08T06:29:01.373Z,16.45
2023-02-08T06:31:28.687Z,17.92
2023-02-08T06:33:56.137Z,17.80
2023-02-08T06:36:23.545Z,17.70
2023-02-08T06:38:51.421Z,17.48
2023-02-08T06:41:18.679Z,18.17
2023-02-08T06:43:45.881Z,17.45
2023-02-08T06:46:13.164Z,18.27
2023-02-08T06:48:40.410Z,18.48
2023-02-08T06:51:07.626Z,17.58
2023-02-08T06:53:34.815Z,17.27
2023-02-08T06:56:02.102Z,19.17
2023-02-08T06:58:29.292Z,18.42
2023-02-08T07:00:56.584Z,19.35
2023-02-08T07:03:23.742Z,20.10
2023-02-08T07:06:04.179Z,18.50
2023-02-08T07:08:32.731Z,19.58
2023-02-08T07:10:59.996Z,18.77
2023-02-08T07:13:27.225Z,18.10
2023-02-08T07:15:54.432Z,19.23
2023-02-08T07:18:21.582Z,18.00
2023-02-08T07:20:49.390Z,21.20
2023-02-08T07:23:16.616Z,20.10
2023-02-08T07:25:43.861Z,18.95
2023-02-08T07:28:11.129Z,19.45
2023-02-08T07:30:38.423Z,18.77
2023-02-08T07:33:05.828Z,19.58
2023-02-08T07:35:33.028Z,18.65
2023-02-08T07:38:00.195Z,20.67
2023-02-08T07:40:27.347Z,21.42
2023-02-08T07:42:54.548Z,20.27
2023-02-08T07:45:21.980Z,20.45
2023-02-08T07:47:49.170Z,21.58
2023-02-08T07:50:17.089Z,20.00
2023-02-08T07:52:46.121Z,20.58
2023-02-08T07:55:17.017Z,22.88
2023-02-08T07:57:48.216Z,20.83
2023-02-08T08:00:16.128Z,20.63
2023-02-08T08:02:43.439Z,19.50
2023-02-08T08:05:11.063Z,19.00
2023-02-08T08:07:38.343Z,18.23
2023-02-08T08:10:05.672Z,17.73
2023-02-08T08:12:32.912Z,15.75
2023-02-08T08:15:00.135Z,16.42
2023-02-08T08:17:29.781Z,16.52
2023-02-08T08:19:57.147Z,15.52
2023-02-08T08:22:24.321Z,15.30
2023-02-08T08:24:51.533Z,15.43
2023-02-08T08:27:18.673Z,14.82
2023-02-08T08:29:45.939Z,15.88
2023-02-08T08:32:13.095Z,13.00
2023-02-08T08:34:40.299Z,14.90
2023-02-08T08:37:07.483Z,13.32
2023-02-08T08:39:34.691Z,13.38
2023-02-08T08:42:04.079Z,14.43
2023-02-08T08:44:31.568Z,15.27
2023-02-08T08:46:59.211Z,15.63
2023-02-08T08:49:27.025Z,15.32
2023-02-08T08:51:54.305Z,14.98
2023-02-08T08:54:22.377Z,14.85
2023-02-08T08:56:49.663Z,14.55
2023-02-08T08:59:16.859Z,15.10
2023-02-08T09:01:44.032Z,14.70
2023-02-08T09:04:11.731Z,16.63
2023-02-08T09:06:39.103Z,16.13
2023-02-08T09:09:06.936Z,17.73
2023-02-08T09:11:34.385Z,16.30
2023-02-08T09:14:05.043Z,18.23
2023-02-08T09:16:32.764Z,16.60
2023-02-08T09:19:03.106Z,15.25
2023-02-08T09:21:30.460Z,16.92
2023-02-08T09:23:57.884Z,16.48
2023-02-08T09:26:26.539Z,15.75
2023-02-08T09:28:53.833Z,16.35
2023-02-08T09:31:31.482Z,16.45
2023-02-08T09:33:59.822Z,16.65
2023-02-08T09:36:29.030Z,16.35
2023-02-08T09:39:00.896Z,18.52
2023-02-08T09:41:38.823Z,16.58
2023-02-08T09:44:26.049Z,16.63
2023-02-08T09:47:02.734Z,16.60
2023-02-08T09:49:39.058Z,17.40
2023-02-08T09:52:10.992Z,16.30
2023-02-08T09:54:40.265Z,16.92
2023-02-08T09:57:10.987Z,16.92
2023-02-08T09:59:39.678Z,17.63
2023-02-08T10:02:09.972Z,16.63
2023-02-08T10:04:41.392Z,18.15
2023-02-08T10:07:10.458Z,19.10
2023-02-08T10:09:37.794Z,19.00
2023-02-08T10:12:15.573Z,21.75
2023-02-08T10:14:43.004Z,21.52
2023-02-08T10:17:28.860Z,20.13
2023-02-08T10:19:59.658Z,19.30
2023-02-08T10:22:36.792Z,19.60
2023-02-08T10:25:22.385Z,19.52
2023-02-08T10:27:49.632Z,18.98
2023-02-08T10:30:30.613Z,17.95
2023-02-08T10:33:07.998Z,19.40
2023-02-08T10:35:44.503Z,17.35
2023-02-08T10:38:23.490Z,18.08
2023-02-08T10:40:55.508Z,16.83
2023-02-08T10:43:31.124Z,17.98
2023-02-08T10:46:07.756Z,18.50
2023-02-08T10:48:44.187Z,17.60
2023-02-08T10:51:16.911Z,17.67
2023-02-08T10:56:34.027Z,17.67
2023-02-08T10:59:02.472Z,16.45
2023-02-08T11:01:29.993Z,16.92
2023-02-08T11:04:05.146Z,16.70
2023-02-08T11:06:32.605Z,17.23
2023-02-08T11:08:59.886Z,17.80
2023-02-08T11:11:29.660Z,16.85
2023-02-08T11:14:06.884Z,16.25
2023-02-08T11:16:34.456Z,16.65
2023-02-08T11:19:02.415Z,17.08
2023-02-08T11:21:33.410Z,17.35
2023-02-08T11:24:01.949Z,15.68
2023-02-08T11:26:37.329Z,14.98
2023-02-08T11:29:05.973Z,15.90
2023-02-08T11:31:36.128Z,16.30
2023-02-08T11:34:05.199Z,15.52
2023-02-08T11:36:33.451Z,16.10
2023-02-08T11:39:15.591Z,15.25
2023-02-08T11:41:46.938Z,16.50
2023-02-08T11:44:24.342Z,15.55
2023-02-08T11:46:52.408Z,14.40
2023-02-08T11:49:37.886Z,15.73
2023-02-08T11:52:06.328Z,15.50
2023-02-08T11:54:36.323Z,14.32
2023-02-08T11:57:05.112Z,14.30
2023-02-08T11:59:32.559Z,12.52
2023-02-08T12:01:59.811Z,13.55
2023-02-08T12:04:27.057Z,12.52
2023-02-08T12:06:54.176Z,13.77
2023-02-08T12:09:33.435Z,13.77
2023-02-08T12:12:17.680Z,12.63
2023-02-08T12:14:56.918Z,13.82
2023-02-08T12:17:34.134Z,14.30
2023-02-08T12:20:28.411Z,13.70
2023-02-08T12:23:21.072Z,12.40
2023-02-08T12:25:51.327Z,11.90
2023-02-08T12:28:26.404Z,12.35
2023-02-08T12:30:56.706Z,11.30
2023-02-08T12:33:23.943Z,11.50
2023-02-08T12:36:05.249Z,11.00
2023-02-08T12:38:55.666Z,10.50
2023-02-08T12:41:36.816Z,10.52
2023-02-08T12:44:03.996Z,11.00
2023-02-08T12:46:34.225Z,11.60
2023-02-08T12:49:06.512Z,11.85
2023-02-08T12:51:43.130Z,11.88
2023-02-08T12:54:19.195Z,10.50
2023-02-08T12:57:01.522Z,10.85
2023-02-08T12:59:32.767Z,10.48
2023-02-08T13:02:03.657Z,10.35
2023-02-08T13:04:34.152Z,9.88
2023-02-08T13:07:03.680Z,9.95
2023-02-08T13:09:35.558Z,9.73
2023-02-08T13:12:03.166Z,11.20
2023-02-08T13:14:38.780Z,9.95
2023-02-08T13:17:12.926Z,10.20
2023-02-08T13:20:01.224Z,9.30
2023-02-08T13:22:31.328Z,9.35
2023-02-08T13:25:06.920Z,9.13
2023-02-08T13:27:35.240Z,9.15
2023-02-08T13:30:03.001Z,8.88
2023-02-08T13:32:44.624Z,9.65
2023-02-08T13:35:20.191Z,8.30
2023-02-08T13:37:54.974Z,8.95
2023-02-08T13:40:28.198Z,8.57
2023-02-08T13:42:59.343Z,8.70
2023-02-08T13:45:31.518Z,7.85
2023-02-08T13:48:03.308Z,8.65
2023-02-08T13:50:41.123Z,7.63
2023-02-08T13:53:08.566Z,8.00
2023-02-08T13:55:45.984Z,8.13
2023-02-08T13:58:16.545Z,6.93
2023-02-08T14:01:04.944Z,7.68
2023-02-08T14:03:33.535Z,7.20
2023-02-08T14:06:08.066Z,7.03
2023-02-08T14:08:41.346Z,7.60
2023-02-08T14:11:08.460Z,7.22
2023-02-08T14:13:37.434Z,7.57
2023-02-08T14:16:38.846Z,7.15
2023-02-08T14:19:20.535Z,6.47
2023-02-08T14:21:49.455Z,7.10
2023-02-08T14:24:23.964Z,7.57
2023-02-08T14:26:51.716Z,8.07
2023-02-08T14:29:23.456Z,6.95
2023-02-08T14:31:51.199Z,7.10
2023-02-08T14:34:24.078Z,6.55
2023-02-08T14:37:00.116Z,6.97
2023-02-08T14:39:29.196Z,6.75
2023-02-08T14:42:00.111Z,6.60
2023-02-08T14:44:48.916Z,6.43
2023-02-08T14:47:38.570Z,5.82
2023-02-08T14:50:11.966Z,7.07
2023-02-08T14:52:39.675Z,6.72
2023-02-08T14:55:18.945Z,7.35
2023-02-08T14:57:46.539Z,6.05
2023-02-08T15:00:21.853Z,6.68
2023-02-08T15:02:49.999Z,6.55
2023-02-08T15:05:24.874Z,6.13
2023-02-08T15:07:57.619Z,7.10
2023-02-08T15:10:26.013Z,5.60
2023-02-08T15:12:54.902Z,7.05
2023-02-08T15:15:36.674Z,6.13
2023-02-08T15:18:05.255Z,6.55
2023-02-08T15:20:33.569Z,6.70
2023-02-08T15:23:19.148Z,7.30
2023-02-08T15:25:55.105Z,7.00
2023-02-08T15:28:23.456Z,7.03
2023-02-08T15:30:56.050Z,6.75
2023-02-08T15:33:23.506Z,6.93
2023-02-08T15:35:59.062Z,6.43
2023-02-08T15:38:26.328Z,5.68
2023-02-08T15:41:00.939Z,6.95
2023-02-08T15:43:28.254Z,5.88
2023-02-08T15:45:59.787Z,6.00
2023-02-08T15:48:27.722Z,6.53
2023-02-08T15:50:55.808Z,6.68
2023-02-08T15:53:24.389Z,6.40
2023-02-08T15:55:53.399Z,6.57
2023-02-08T15:58:28.746Z,6.80
2023-02-08T16:00:57.667Z,5.88
2023-02-08T16:03:25.444Z,6.70
2023-02-08T16:05:54.828Z,6.90
2023-02-08T16:08:26.236Z,6.50
2023-02-08T16:10:57.204Z,5.63
2023-02-08T16:13:26.104Z,6.65
2023-02-08T16:16:03.791Z,6.05
2023-02-08T16:18:39.277Z,6.63
2023-02-08T16:21:07.909Z,6.93
2023-02-08T16:23:36.019Z,6.25
2023-02-08T16:26:16.403Z,7.18
2023-02-08T16:28:43.630Z,6.85
2023-02-08T16:31:11.443Z,7.43
2023-02-08T16:33:39.616Z,6.95
2023-02-08T16:36:06.980Z,7.18
2023-02-08T16:38:34.897Z,6.22
2023-02-08T16:41:13.166Z,6.40
2023-02-08T16:43:44.618Z,6.05
2023-02-08T16:46:11.873Z,6.45
2023-02-08T16:48:40.183Z,7.25
2023-02-08T16:51:08.561Z,6.68
2023-02-08T16:53:42.207Z,7.63
2023-02-08T16:56:10.953Z,9.82
2023-02-08T16:58:38.513Z,8.15
2023-02-08T17:01:05.878Z,7.68
2023-02-08T17:03:33.516Z,7.63
2023-02-08T17:06:01.438Z,7.38
2023-02-08T17:08:28.691Z,7.43
2023-02-08T17:10:58.957Z,6.35
2023-02-08T17:13:29.436Z,6.50
2023-02-08T17:16:00.248Z,6.70
2023-02-08T17:18:27.638Z,6.32
2023-02-08T17:20:59.550Z,6.63
2023-02-08T17:23:27.400Z,6.35
2023-02-08T17:25:54.631Z,6.43
2023-02-08T17:28:22.106Z,6.63
2023-02-08T17:30:49.890Z,7.22
2023-02-08T17:33:20.408Z,7.38
2023-02-08T17:35:48.783Z,6.55
2023-02-08T17:38:16.192Z,5.43
2023-02-08T17:40:43.669Z,5.57
2023-02-08T17:43:11.883Z,5.47
2023-02-08T17:45:40.256Z,6.63
2023-02-08T17:48:07.832Z,6.13
2023-02-08T17:50:35.163Z,6.05
2023-02-08T17:53:03.981Z,5.90
2023-02-08T17:55:31.339Z,5.28
2023-02-08T17:57:58.608Z,6.22
2023-02-08T18:00:25.876Z,6.70
2023-02-08T18:02:54.316Z,8.48
2023-02-08T18:05:25.354Z,10.05
2023-02-08T18:07:53.625Z,9.13
2023-02-08T18:10:21.328Z,8.35
2023-02-08T18:12:48.526Z,8.20
2023-02-08T18:15:17.244Z,7.85
2023-02-08T18:17:44.905Z,7.28
2023-02-08T18:20:14.225Z,6.35
2023-02-08T18:22:44.560Z,5.70
2023-02-08T18:25:12.988Z,6.63
2023-02-08T18:27:40.632Z,5.50
2023-02-08T18:30:08.457Z,6.00
2023-02-08T18:32:35.707Z,7.43
2023-02-08T18:35:04.314Z,7.25
2023-02-08T18:37:33.174Z,7.18
2023-02-08T18:40:00.830Z,7.38
2023-02-08T18:42:28.216Z,7.28
2023-02-08T18:44:55.582Z,7.32
2023-02-08T18:47:23.010Z,6.80
2023-02-08T18:49:53.896Z,6.93
2023-02-08T18:52:21.981Z,6.75
2023-02-08T18:54:49.317Z,6.30
2023-02-08T18:57:16.659Z,6.55
2023-02-08T18:59:43.891Z,7.20
2023-02-08T19:02:17.138Z,7.70
2023-02-08T19:04:44.453Z,6.40
2023-02-08T19:07:11.633Z,6.80
2023-02-08T19:09:39.346Z,6.38
2023-02-08T19:12:07.489Z,6.60
2023-02-08T19:14:35.253Z,6.30
2023-02-08T19:17:02.701Z,7.07
2023-02-08T19:19:30.168Z,7.78
2023-02-08T19:21:57.363Z,7.50
2023-02-08T19:24:24.930Z,7.15
2023-02-08T19:26:52.155Z,7.45
2023-02-08T19:29:23.219Z,8.00
2023-02-08T19:31:51.855Z,8.00
2023-02-08T19:34:19.306Z,8.88
2023-02-08T19:36:51.683Z,7.57
2023-02-08T19:39:21.566Z,7.82
2023-02-08T19:41:48.951Z,8.45
2023-02-08T19:44:17.734Z,8.48
2023-02-08T19:46:49.179Z,8.23
2023-02-08T19:49:16.393Z,8.90
2023-02-08T19:51:43.554Z,8.45
2023-02-08T19:54:13.298Z,10.23
2023-02-08T19:56:41.277Z,8.40
2023-02-08T19:59:15.152Z,8.60
2023-02-08T20:01:42.510Z,9.63
2023-02-08T20:04:09.788Z,10.25
2023-02-08T20:06:39.070Z,9.88
2023-02-08T20:09:07.114Z,9.65
2023-02-08T20:11:38.701Z,9.85
2023-02-08T20:14:11.442Z,9.00
2023-02-08T20:16:38.708Z,10.48
2023-02-08T20:19:05.921Z,9.07
2023-02-08T20:21:39.652Z,8.95
2023-02-08T20:24:09.031Z,9.80
2023-02-08T20:26:37.207Z,10.77
2023-02-08T20:29:04.375Z,10.27
2023-02-08T20:31:35.115Z,10.90
2023-02-08T20:34:03.393Z,11.30
2023-02-08T20:36:32.429Z,12.40
2023-02-08T20:39:00.542Z,12.63
2023-02-08T20:41:31.036Z,11.85
2023-02-08T20:43:58.304Z,12.93
2023-02-08T20:46:34.388Z,11.88
2023-02-08T20:49:02.647Z,10.20
2023-02-08T20:51:29.973Z,10.88
2023-02-08T20:53:58.026Z,9.93
2023-02-08T20:56:27.099Z,10.13
2023-02-08T20:58:55.325Z,10.05
2023-02-08T21:01:24.677Z,9.73
2023-02-08T21:03:55.282Z,10.32
2023-02-08T21:06:26.362Z,9.60
2023-02-08T21:08:55.360Z,9.13
2023-02-08T21:11:23.821Z,10.20
2023-02-08T21:13:51.207Z,9.15
2023-02-08T21:16:18.883Z,9.75
2023-02-08T21:18:47.072Z,9.05
2023-02-08T21:21:15.239Z,9.13
2023-02-08T21:23:43.180Z,9.25
2023-02-08T21:26:11.954Z,9.57
2023-02-08T21:28:39.324Z,10.73
2023-02-08T21:31:08.099Z,9.40
2023-02-08T21:33:37.054Z,9.15
2023-02-08T21:36:05.339Z,9.30
2023-02-08T21:38:32.475Z,9.80
2023-02-08T21:40:59.772Z,10.65
2023-02-08T21:43:27.076Z,9.93
2023-02-08T21:45:54.358Z,10.85
2023-02-08T21:48:21.562Z,12.60
2023-02-08T21:51:07.331Z,11.50
2023-02-08T21:53:53.321Z,10.30
2023-02-08T21:56:20.601Z,9.90
2023-02-08T21:58:47.798Z,10.40
2023-02-08T22:01:14.966Z,10.63
2023-02-08T22:03:42.256Z,9.07
2023-02-08T22:06:28.132Z,8.45
2023-02-08T22:08:55.324Z,8.02
2023-02-08T22:11:22.512Z,9.27
2023-02-08T22:13:49.839Z,8.35
2023-02-08T22:16:18.362Z,8.48
2023-02-08T22:18:45.713Z,9.35
2023-02-08T22:21:12.883Z,8.07
2023-02-08T22:23:40.124Z,9.52
2023-02-08T22:26:07.958Z,9.27
2023-02-08T22:28:35.192Z,8.90
2023-02-08T22:31:02.876Z,9.27
2023-02-08T22:33:30.125Z,9.15
2023-02-08T22:35:57.512Z,8.98
2023-02-08T22:38:24.800Z,8.90
2023-02-08T22:40:52.314Z,9.60
2023-02-08T22:43:19.485Z,10.18
2023-02-08T22:45:48.190Z,9.18
2023-02-08T22:48:15.354Z,10.65
2023-02-08T22:50:42.803Z,9.38
2023-02-08T22:53:10.169Z,9.82
2023-02-08T22:55:37.319Z,9.90
2023-02-08T22:58:04.474Z,10.38
2023-02-08T23:00:31.648Z,8.75
2023-02-08T23:02:58.856Z,8.25
2023-02-08T23:05:26.060Z,8.75
2023-02-08T23:07:53.196Z,9.52
2023-02-08T23:10:20.435Z,7.82
2023-02-08T23:12:47.602Z,8.07
2023-02-08T23:15:14.798Z,9.23
2023-02-08T23:17:41.984Z,8.95
2023-02-08T23:20:10.525Z,8.82
2023-02-08T23:22:38.205Z,8.27
2023-02-08T23:25:05.900Z,8.55
2023-02-08T23:27:33.151Z,7.18
2023-02-08T23:30:02.677Z,8.52
2023-02-08T23:32:29.814Z,8.88
2023-02-08T23:34:57.018Z,8.85
2023-02-08T23:37:24.212Z,8.65
2023-02-08T23:39:51.629Z,9.77
2023-02-08T23:42:27.804Z,9.27
2023-02-08T23:44:55.769Z,10.13
2023-02-08T23:47:23.497Z,10.63
2023-02-08T23:49:51.058Z,11.13
2023-02-08T23:52:18.424Z,10.88
2023-02-08T23:54:46.762Z,10.70
2023-02-08T23:57:14.080Z,9.68
2023-02-08T23:59:41.542Z,10.68
